createdAt,value
2022-11-16T00:01:40.897Z,11.02
2022-11-16T00:04:09.558Z,11.03
2022-11-16T00:06:35.845Z,11.05
2022-11-16T00:09:22.088Z,11.03
2022-11-16T00:11:51.080Z,11.05
2022-11-16T00:14:19.144Z,11.06
2022-11-16T00:16:45.534Z,11.08
2022-11-16T00:19:12.893Z,11.08
2022-11-16T00:21:39.879Z,11.08
2022-11-16T00:24:07.056Z,11.09
2022-11-16T00:26:33.357Z,11.08
2022-11-16T00:28:59.713Z,11.07
2022-11-16T00:31:26.298Z,11.08
2022-11-16T00:33:52.666Z,11.11
2022-11-16T00:36:18.981Z,11.11
2022-11-16T00:38:45.335Z,11.11
2022-11-16T00:41:11.634Z,11.12
2022-11-16T00:43:38.183Z,11.13
2022-11-16T00:46:05.229Z,11.14
2022-11-16T00:48:32.068Z,11.15
2022-11-16T00:50:58.667Z,11.16
2022-11-16T00:53:24.983Z,11.15
2022-11-16T00:55:51.611Z,11.16
2022-11-16T00:58:17.897Z,11.17
2022-11-16T01:00:44.246Z,11.17
2022-11-16T01:03:10.771Z,11.17
2022-11-16T01:05:37.152Z,11.16
2022-11-16T01:08:03.782Z,11.16
2022-11-16T01:10:30.488Z,11.17
2022-11-16T01:12:57.115Z,11.17
2022-11-16T01:15:25.655Z,11.17
2022-11-16T01:17:53.734Z,11.18
2022-11-16T01:20:22.766Z,11.17
2022-11-16T01:22:49.142Z,11.17
2022-11-16T01:25:16.392Z,11.18
2022-11-16T01:27:43.669Z,11.19
2022-11-16T01:30:12.811Z,11.18
2022-11-16T01:32:39.168Z,11.18
2022-11-16T01:35:06.065Z,11.19
2022-11-16T01:37:33.211Z,11.19
2022-11-16T01:39:59.574Z,11.21
2022-11-16T01:42:28.309Z,11.22
2022-11-16T01:44:58.213Z,11.22
2022-11-16T01:47:24.617Z,11.22
2022-11-16T01:49:57.998Z,11.21
2022-11-16T01:52:28.982Z,11.23
2022-11-16T01:54:55.642Z,11.22
2022-11-16T01:57:32.563Z,11.22
2022-11-16T02:00:00.784Z,11.26
2022-11-16T02:02:27.425Z,11.25
2022-11-16T02:04:55.269Z,11.26
2022-11-16T02:07:54.965Z,11.25
2022-11-16T02:10:41.343Z,11.25
2022-11-16T02:13:32.367Z,11.25
2022-11-16T02:16:14.460Z,11.25
2022-11-16T02:18:50.507Z,11.27
2022-11-16T02:21:40.983Z,11.26
2022-11-16T02:24:43.709Z,11.26
2022-11-16T02:27:28.424Z,11.26
2022-11-16T02:29:56.523Z,11.27
2022-11-16T02:32:42.346Z,11.26
2022-11-16T02:35:32.447Z,11.26
2022-11-16T02:38:09.202Z,11.27
2022-11-16T02:40:39.114Z,11.27
2022-11-16T02:43:12.000Z,11.26
2022-11-16T02:45:42.759Z,11.27
2022-11-16T02:48:14.942Z,11.28
2022-11-16T02:50:42.611Z,11.28
2022-11-16T02:53:08.954Z,11.28
2022-11-16T02:55:36.504Z,11.27
2022-11-16T02:58:09.686Z,11.27
2022-11-16T03:00:44.573Z,11.26
2022-11-16T03:03:25.873Z,11.28
2022-11-16T03:06:06.942Z,11.29
2022-11-16T03:08:49.696Z,11.28
2022-11-16T03:11:35.147Z,11.28
2022-11-16T03:14:14.641Z,11.27
2022-11-16T03:16:46.079Z,11.28
2022-11-16T03:19:17.102Z,11.28
2022-11-16T03:22:23.142Z,11.26
2022-11-16T03:24:50.508Z,11.25
2022-11-16T03:27:44.909Z,11.25
2022-11-16T03:30:18.142Z,11.23
2022-11-16T03:32:56.704Z,11.21
2022-11-16T03:35:31.894Z,11.20
2022-11-16T03:38:00.654Z,11.18
2022-11-16T03:40:30.706Z,11.17
2022-11-16T03:43:00.036Z,11.15
2022-11-16T03:45:26.827Z,11.15
2022-11-16T03:47:53.118Z,11.14
2022-11-16T03:50:19.890Z,11.12
2022-11-16T03:52:46.344Z,11.11
2022-11-16T03:55:12.653Z,11.10
2022-11-16T03:57:38.992Z,11.09
2022-11-16T04:00:06.896Z,11.06
2022-11-16T04:02:33.194Z,11.04
2022-11-16T04:05:18.377Z,11.02
2022-11-16T04:08:03.562Z,11.00
2022-11-16T04:10:48.239Z,10.99
2022-11-16T04:13:34.604Z,10.97
2022-11-16T04:16:19.304Z,10.94
2022-11-16T04:19:04.058Z,10.91
2022-11-16T04:21:56.390Z,10.89
2022-11-16T04:24:27.914Z,10.85
2022-11-16T04:27:17.550Z,10.82
2022-11-16T04:29:43.943Z,10.80
2022-11-16T04:32:30.268Z,10.77
2022-11-16T04:35:15.426Z,10.73
2022-11-16T04:37:52.320Z,10.69
2022-11-16T04:40:21.587Z,10.65
2022-11-16T04:42:54.125Z,10.61
2022-11-16T04:45:40.454Z,10.57
2022-11-16T04:48:06.876Z,10.52
2022-11-16T04:50:33.660Z,10.49
2022-11-16T04:53:00.168Z,10.46
2022-11-16T04:55:26.710Z,10.43
2022-11-16T04:57:53.339Z,10.39
2022-11-16T05:00:20.519Z,10.36
2022-11-16T05:02:47.201Z,10.33
2022-11-16T05:05:13.948Z,10.30
2022-11-16T05:07:40.274Z,10.27
2022-11-16T05:10:07.607Z,10.23
2022-11-16T05:12:34.951Z,10.17
2022-11-16T05:15:01.730Z,10.13
2022-11-16T05:17:29.198Z,10.09
2022-11-16T05:20:14.115Z,10.05
2022-11-16T05:22:40.489Z,10.02
2022-11-16T05:25:08.938Z,9.98
2022-11-16T05:27:35.992Z,9.97
2022-11-16T05:30:02.322Z,9.95
2022-11-16T05:32:28.621Z,9.92
2022-11-16T05:34:55.316Z,9.89
2022-11-16T05:37:23.138Z,9.88
2022-11-16T05:39:49.521Z,9.87
2022-11-16T05:42:15.885Z,9.85
2022-11-16T05:44:42.253Z,9.85
2022-11-16T05:47:08.546Z,9.84
2022-11-16T05:49:34.838Z,9.84
2022-11-16T05:52:01.219Z,9.84
2022-11-16T05:54:27.586Z,9.87
2022-11-16T05:56:54.700Z,9.87
2022-11-16T05:59:22.254Z,9.84
2022-11-16T06:01:49.219Z,9.84
2022-11-16T06:04:15.818Z,9.83
2022-11-16T06:06:42.548Z,9.81
2022-11-16T06:09:11.408Z,9.79
2022-11-16T06:11:38.137Z,9.80
2022-11-16T06:14:05.483Z,9.78
2022-11-16T06:16:31.776Z,9.76
2022-11-16T06:18:59.589Z,9.75
2022-11-16T06:21:26.247Z,9.71
2022-11-16T06:23:52.542Z,9.73
2022-11-16T06:26:18.886Z,9.73
2022-11-16T06:28:45.208Z,9.72
2022-11-16T06:31:11.583Z,9.71
2022-11-16T06:33:37.921Z,9.69
2022-11-16T06:36:04.637Z,9.67
2022-11-16T06:38:31.682Z,9.64
2022-11-16T06:40:59.186Z,9.60
2022-11-16T06:43:26.642Z,9.57
2022-11-16T06:45:55.766Z,9.52
2022-11-16T06:48:22.535Z,9.48
2022-11-16T06:50:49.863Z,9.43
2022-11-16T06:53:16.754Z,9.40
2022-11-16T06:55:43.142Z,9.37
2022-11-16T06:58:09.696Z,9.31
2022-11-16T07:00:36.438Z,9.25
2022-11-16T07:03:03.673Z,9.20
2022-11-16T07:05:31.195Z,9.17
2022-11-16T07:07:57.970Z,9.14
2022-11-16T07:10:25.278Z,9.10
2022-11-16T07:12:51.654Z,9.10
2022-11-16T07:15:18.218Z,9.08
2022-11-16T07:17:44.528Z,9.07
2022-11-16T07:20:12.004Z,9.04
2022-11-16T07:22:38.462Z,9.00
2022-11-16T07:25:05.202Z,9.00
2022-11-16T07:27:31.538Z,8.96
2022-11-16T07:29:58.022Z,8.93
2022-11-16T07:32:26.682Z,8.90
2022-11-16T07:34:53.371Z,8.88
2022-11-16T07:37:19.820Z,8.89
2022-11-16T07:39:46.214Z,8.87
2022-11-16T07:42:12.634Z,8.86
2022-11-16T07:44:39.140Z,8.86
2022-11-16T07:47:05.870Z,8.88
2022-11-16T07:49:32.218Z,8.90
2022-11-16T07:51:58.702Z,8.91
2022-11-16T07:54:25.020Z,8.93
2022-11-16T07:56:51.400Z,9.04
2022-11-16T07:59:17.851Z,9.02
2022-11-16T08:01:47.622Z,8.99
2022-11-16T08:04:15.439Z,9.01
2022-11-16T08:06:41.749Z,9.03
2022-11-16T08:09:09.321Z,9.08
2022-11-16T08:11:35.709Z,9.26
2022-11-16T08:14:02.173Z,9.50
2022-11-16T08:16:28.630Z,9.67
2022-11-16T08:18:55.008Z,9.73
2022-11-16T08:21:21.496Z,9.74
2022-11-16T08:23:47.874Z,9.63
2022-11-16T08:26:19.342Z,9.57
2022-11-16T08:28:47.918Z,9.53
2022-11-16T08:31:17.853Z,9.58
2022-11-16T08:33:44.729Z,9.66
2022-11-16T08:36:14.465Z,9.71
2022-11-16T08:38:41.088Z,9.66
2022-11-16T08:41:08.278Z,9.61
2022-11-16T08:43:35.693Z,9.60
2022-11-16T08:46:02.192Z,9.61
2022-11-16T08:48:28.495Z,9.71
2022-11-16T08:51:16.496Z,10.33
2022-11-16T08:53:41.306Z,10.64
2022-11-16T08:56:10.116Z,10.50
2022-11-16T08:58:36.549Z,10.69
2022-11-16T09:01:11.064Z,10.68
2022-11-16T09:03:38.793Z,11.52
2022-11-16T09:08:47.263Z,10.88
2022-11-16T09:11:16.635Z,10.79
2022-11-16T09:13:44.311Z,11.01
2022-11-16T09:16:11.019Z,10.86
2022-11-16T09:18:38.124Z,10.75
2022-11-16T09:21:04.962Z,10.58
2022-11-16T09:23:31.791Z,10.55
2022-11-16T09:26:02.613Z,10.63
2022-11-16T09:28:29.377Z,10.52
2022-11-16T09:31:00.908Z,10.61
2022-11-16T09:33:32.027Z,10.52
2022-11-16T09:36:09.659Z,10.44
2022-11-16T09:39:13.262Z,10.40
2022-11-16T09:42:07.236Z,10.47
2022-11-16T09:44:33.573Z,10.48
2022-11-16T09:47:01.978Z,10.37
2022-11-16T09:49:39.156Z,10.41
2022-11-16T09:52:14.210Z,10.51
2022-11-16T09:54:44.529Z,10.88
2022-11-16T09:57:14.579Z,11.38
2022-11-16T09:59:44.909Z,11.21
2022-11-16T10:02:26.590Z,11.09
2022-11-16T10:05:14.727Z,11.05
2022-11-16T10:07:48.307Z,10.93
2022-11-16T10:10:38.192Z,10.95
2022-11-16T10:13:29.815Z,10.95
2022-11-16T10:16:18.356Z,10.85
2022-11-16T10:18:56.182Z,10.95
2022-11-16T10:21:36.087Z,10.88
2022-11-16T10:24:16.422Z,10.81
2022-11-16T10:27:20.779Z,10.82
2022-11-16T10:29:54.546Z,10.84
2022-11-16T10:32:30.883Z,10.89
2022-11-16T10:35:06.014Z,10.93
2022-11-16T10:37:38.671Z,10.97
2022-11-16T10:40:16.285Z,11.06
2022-11-16T10:42:45.279Z,11.12
2022-11-16T10:45:20.834Z,11.12
2022-11-16T10:47:58.348Z,11.05
2022-11-16T10:50:32.562Z,11.10
2022-11-16T10:52:59.885Z,11.10
2022-11-16T10:55:28.563Z,11.19
2022-11-16T10:57:57.952Z,11.27
2022-11-16T11:00:36.472Z,11.23
2022-11-16T11:03:02.863Z,11.35
2022-11-16T11:05:29.836Z,11.33
2022-11-16T11:08:06.111Z,11.30
2022-11-16T11:10:36.834Z,11.32
2022-11-16T11:13:04.986Z,11.31
2022-11-16T11:15:32.027Z,11.26
2022-11-16T11:18:23.256Z,11.18
2022-11-16T11:20:51.202Z,11.10
2022-11-16T11:23:23.724Z,11.25
2022-11-16T11:25:58.433Z,11.46
2022-11-16T11:28:33.701Z,11.55
2022-11-16T11:31:03.650Z,11.51
2022-11-16T11:33:34.809Z,11.38
2022-11-16T11:36:18.551Z,11.42
2022-11-16T11:39:08.289Z,11.52
2022-11-16T11:41:38.924Z,11.57
2022-11-16T11:44:14.679Z,11.61
2022-11-16T11:47:35.317Z,11.65
2022-11-16T11:49:40.521Z,11.71
2022-11-16T11:52:17.417Z,11.73
2022-11-16T11:54:47.666Z,11.78
2022-11-16T11:57:20.529Z,11.78
2022-11-16T11:59:47.712Z,11.58
2022-11-16T12:02:42.399Z,11.47
2022-11-16T12:05:35.161Z,11.42
2022-11-16T12:08:18.012Z,11.47
2022-11-16T12:10:49.175Z,11.48
2022-11-16T12:13:35.038Z,11.51
2022-11-16T12:16:12.186Z,11.48
2022-11-16T12:18:38.474Z,11.46
2022-11-16T12:21:15.122Z,11.41
2022-11-16T12:24:03.462Z,11.37
2022-11-16T12:26:46.185Z,11.38
2022-11-16T12:29:16.834Z,11.38
2022-11-16T12:32:14.170Z,11.48
2022-11-16T12:35:05.574Z,11.46
2022-11-16T12:37:41.182Z,11.42
2022-11-16T12:40:10.260Z,11.41
2022-11-16T12:42:36.517Z,11.44
2022-11-16T12:45:32.621Z,11.68
2022-11-16T12:48:16.251Z,11.83
2022-11-16T12:51:39.284Z,11.93
2022-11-16T12:55:19.186Z,11.90
2022-11-16T12:58:24.143Z,11.86
2022-11-16T13:04:07.532Z,11.91
2022-11-16T13:06:59.654Z,11.98
2022-11-16T13:10:01.752Z,11.98
2022-11-16T13:12:31.704Z,11.99
2022-11-16T13:15:31.177Z,12.00
2022-11-16T13:18:07.331Z,11.96
2022-11-16T13:20:58.745Z,11.94
2022-11-16T13:23:40.322Z,11.92
2022-11-16T13:26:42.740Z,11.94
2022-11-16T13:29:57.910Z,11.91
2022-11-16T13:32:53.036Z,11.90
2022-11-16T13:35:34.352Z,11.87
2022-11-16T13:38:09.855Z,11.68
2022-11-16T13:40:36.715Z,11.61
2022-11-16T13:43:09.147Z,11.51
2022-11-16T13:45:49.121Z,11.39
2022-11-16T13:48:42.838Z,11.29
2022-11-16T13:51:43.572Z,11.24
2022-11-16T13:54:50.044Z,11.21
2022-11-16T13:57:25.737Z,11.22
2022-11-16T14:00:06.205Z,11.22
2022-11-16T14:02:40.366Z,11.19
2022-11-16T14:05:17.769Z,11.18
2022-11-16T14:07:59.433Z,11.18
2022-11-16T14:10:47.054Z,11.20
2022-11-16T14:13:40.360Z,11.31
2022-11-16T14:16:22.172Z,11.33
2022-11-16T14:19:04.325Z,11.34
2022-11-16T14:24:50.848Z,11.27
2022-11-16T14:27:38.663Z,11.15
2022-11-16T14:30:43.931Z,11.02
2022-11-16T14:33:32.089Z,10.94
2022-11-16T14:36:16.218Z,10.89
2022-11-16T14:38:51.250Z,10.83
2022-11-16T14:41:30.171Z,10.82
2022-11-16T14:43:59.749Z,10.90
2022-11-16T14:46:40.563Z,10.97
2022-11-16T14:49:20.055Z,11.01
2022-11-16T14:51:55.038Z,11.00
2022-11-16T14:54:53.544Z,10.95
2022-11-16T14:57:24.420Z,10.89
2022-11-16T15:00:44.509Z,10.83
2022-11-16T15:03:14.984Z,10.73
2022-11-16T15:05:50.516Z,10.67
2022-11-16T15:08:42.094Z,10.59
2022-11-16T15:11:24.319Z,10.53
2022-11-16T15:13:51.688Z,10.46
2022-11-16T15:16:20.092Z,10.40
2022-11-16T15:19:12.217Z,10.33
2022-11-16T15:21:38.622Z,10.28
2022-11-16T15:26:51.525Z,10.13
2022-11-16T15:29:19.684Z,10.08
2022-11-16T15:31:47.177Z,10.04
2022-11-16T15:34:16.668Z,9.99
2022-11-16T15:36:43.867Z,9.93
2022-11-16T15:39:15.494Z,9.85
2022-11-16T15:41:42.866Z,9.81
2022-11-16T15:44:15.838Z,9.78
2022-11-16T15:46:48.749Z,9.72
2022-11-16T15:49:35.931Z,9.65
2022-11-16T15:52:02.473Z,9.57
2022-11-16T15:54:54.429Z,9.48
2022-11-16T15:57:22.837Z,9.42
2022-11-16T15:59:57.212Z,9.36
2022-11-16T16:02:27.575Z,9.33
2022-11-16T16:04:54.364Z,9.30
2022-11-16T16:07:36.641Z,9.24
2022-11-16T16:10:18.218Z,9.21
2022-11-16T16:12:50.897Z,9.18
2022-11-16T16:15:36.389Z,9.10
2022-11-16T16:18:11.385Z,9.03
2022-11-16T16:20:37.889Z,9.01
2022-11-16T16:23:13.286Z,9.02
2022-11-16T16:25:39.569Z,9.05
2022-11-16T16:28:05.869Z,9.03
2022-11-16T16:30:34.585Z,9.04
2022-11-16T16:33:01.651Z,9.06
2022-11-16T16:35:28.564Z,9.03
2022-11-16T16:38:00.718Z,9.01
2022-11-16T16:40:28.403Z,8.99
2022-11-16T16:42:55.778Z,8.94
2022-11-16T16:45:37.223Z,8.94
2022-11-16T16:48:03.896Z,8.92
2022-11-16T16:50:30.233Z,8.91
2022-11-16T16:52:56.569Z,8.87
2022-11-16T16:55:23.280Z,8.82
2022-11-16T16:57:49.625Z,8.77
2022-11-16T17:00:16.530Z,8.72
2022-11-16T17:02:42.966Z,8.71
2022-11-16T17:05:09.782Z,8.76
2022-11-16T17:07:36.246Z,8.74
2022-11-16T17:10:02.627Z,8.73
2022-11-16T17:12:29.002Z,8.71
2022-11-16T17:14:55.496Z,8.68
2022-11-16T17:17:24.223Z,8.67
2022-11-16T17:19:51.502Z,8.63
2022-11-16T17:22:18.990Z,8.60
2022-11-16T17:24:45.379Z,8.55
2022-11-16T17:27:11.905Z,8.52
2022-11-16T17:29:38.227Z,8.50
2022-11-16T17:32:04.837Z,8.45
2022-11-16T17:34:31.722Z,8.41
2022-11-16T17:36:58.173Z,8.37
2022-11-16T17:39:24.924Z,8.34
2022-11-16T17:41:51.746Z,8.31
2022-11-16T17:44:21.802Z,8.28
2022-11-16T17:46:48.557Z,8.25
2022-11-16T17:49:15.859Z,8.21
2022-11-16T17:51:42.528Z,8.19
2022-11-16T17:54:09.114Z,8.16
2022-11-16T17:56:35.513Z,8.12
2022-11-16T17:59:01.971Z,8.10
2022-11-16T18:01:28.505Z,8.08
2022-11-16T18:03:55.154Z,8.08
2022-11-16T18:06:23.564Z,8.07
2022-11-16T18:08:49.869Z,8.10
2022-11-16T18:11:24.365Z,8.12
2022-11-16T18:14:00.985Z,8.15
2022-11-16T18:16:30.031Z,8.18
2022-11-16T18:18:58.470Z,8.23
2022-11-16T18:21:25.591Z,8.29
2022-11-16T18:23:52.366Z,8.36
2022-11-16T18:26:21.515Z,8.41
2022-11-16T18:28:48.541Z,8.46
2022-11-16T18:31:16.970Z,8.50
2022-11-16T18:33:44.246Z,8.55
2022-11-16T18:36:11.949Z,8.60
2022-11-16T18:38:38.809Z,8.62
2022-11-16T18:41:11.184Z,8.63
2022-11-16T18:43:42.560Z,8.65
2022-11-16T18:46:09.101Z,8.68
2022-11-16T18:48:35.435Z,8.67
2022-11-16T18:51:03.872Z,8.71
2022-11-16T18:53:32.045Z,8.72
2022-11-16T18:55:58.795Z,8.74
2022-11-16T18:58:49.298Z,8.76
2022-11-16T19:01:14.341Z,8.74
2022-11-16T19:03:41.045Z,8.77
2022-11-16T19:06:08.718Z,8.81
2022-11-16T19:08:36.907Z,8.81
2022-11-16T19:11:08.574Z,8.81
2022-11-16T19:13:35.471Z,8.84
2022-11-16T19:16:02.087Z,8.86
2022-11-16T19:18:29.409Z,8.87
2022-11-16T19:21:07.090Z,8.86
2022-11-16T19:23:42.828Z,8.87
2022-11-16T19:26:09.901Z,8.90
2022-11-16T19:28:37.718Z,8.90
2022-11-16T19:31:13.270Z,8.91
2022-11-16T19:33:40.384Z,8.92
2022-11-16T19:36:11.755Z,8.90
2022-11-16T19:38:38.234Z,8.90
2022-11-16T19:41:05.225Z,8.89
2022-11-16T19:43:32.237Z,8.87
2022-11-16T19:46:07.118Z,8.91
2022-11-16T19:48:34.325Z,8.92
2022-11-16T19:51:08.521Z,8.98
2022-11-16T19:53:35.952Z,8.99
2022-11-16T19:56:02.986Z,9.02
2022-11-16T19:58:29.343Z,9.04
2022-11-16T20:01:04.079Z,9.03
2022-11-16T20:03:31.363Z,9.05
2022-11-16T20:06:15.955Z,9.06
2022-11-16T20:08:46.586Z,9.07
2022-11-16T20:11:18.029Z,9.07
2022-11-16T20:13:45.207Z,9.06
2022-11-16T20:16:13.032Z,9.07
2022-11-16T20:18:40.621Z,9.10
2022-11-16T20:21:08.240Z,9.11
2022-11-16T20:23:35.536Z,9.14
2022-11-16T20:26:06.544Z,9.13
2022-11-16T20:28:41.135Z,9.13
2022-11-16T20:31:09.633Z,9.14
2022-11-16T20:33:36.449Z,9.16
2022-11-16T20:36:05.355Z,9.19
2022-11-16T20:38:33.514Z,9.21
2022-11-16T20:41:09.696Z,9.23
2022-11-16T20:43:36.559Z,9.23
2022-11-16T20:46:03.186Z,9.26
2022-11-16T20:48:29.516Z,9.26
2022-11-16T20:50:55.854Z,9.28
2022-11-16T20:53:22.473Z,9.31
2022-11-16T20:55:49.679Z,9.33
2022-11-16T20:58:22.429Z,9.35
2022-11-16T21:00:49.746Z,9.36
2022-11-16T21:03:16.573Z,9.35
2022-11-16T21:05:44.223Z,9.34
2022-11-16T21:08:12.073Z,9.35
2022-11-16T21:10:39.579Z,9.38
2022-11-16T21:13:25.203Z,9.41
2022-11-16T21:15:59.594Z,9.43
2022-11-16T21:18:30.493Z,9.43
2022-11-16T21:20:59.666Z,9.43
2022-11-16T21:23:29.026Z,9.44
2022-11-16T21:25:55.995Z,9.46
2022-11-16T21:28:25.539Z,9.44
2022-11-16T21:31:00.981Z,9.44
2022-11-16T21:33:28.057Z,9.43
2022-11-16T21:35:54.906Z,9.44
2022-11-16T21:38:24.395Z,9.45
2022-11-16T21:40:51.156Z,9.43
2022-11-16T21:43:17.738Z,9.44
2022-11-16T21:45:45.566Z,9.43
2022-11-16T21:48:12.062Z,9.46
2022-11-16T21:50:38.799Z,9.44
2022-11-16T21:53:06.933Z,9.45
2022-11-16T21:55:33.621Z,9.44
2022-11-16T21:58:00.453Z,9.42
2022-11-16T22:00:27.754Z,9.43
2022-11-16T22:02:54.122Z,9.44
2022-11-16T22:05:39.207Z,9.43
2022-11-16T22:08:08.075Z,9.44
2022-11-16T22:10:34.970Z,9.45
2022-11-16T22:13:01.568Z,9.45
2022-11-16T22:15:27.930Z,9.47
2022-11-16T22:17:54.221Z,9.44
2022-11-16T22:20:21.081Z,9.44
2022-11-16T22:22:47.421Z,9.45
2022-11-16T22:25:13.966Z,9.45
2022-11-16T22:27:58.715Z,9.46
2022-11-16T22:30:26.877Z,9.47
2022-11-16T22:32:54.416Z,9.48
2022-11-16T22:35:20.831Z,9.48
2022-11-16T22:37:47.168Z,9.49
2022-11-16T22:40:17.639Z,9.46
2022-11-16T22:42:44.282Z,9.47
2022-11-16T22:45:10.574Z,9.48
2022-11-16T22:47:36.968Z,9.47
2022-11-16T22:50:03.794Z,9.47
2022-11-16T22:52:30.855Z,9.47
2022-11-16T22:54:57.189Z,9.48
2022-11-16T22:57:23.487Z,9.47
2022-11-16T22:59:50.943Z,9.46
2022-11-16T23:02:17.395Z,9.44
2022-11-16T23:04:43.677Z,9.43
2022-11-16T23:07:10.043Z,9.44
2022-11-16T23:09:36.466Z,9.45
2022-11-16T23:12:21.405Z,9.43
2022-11-16T23:15:06.287Z,9.44
2022-11-16T23:17:32.574Z,9.43
2022-11-16T23:20:28.450Z,9.41
2022-11-16T23:23:13.755Z,9.40
2022-11-16T23:25:59.111Z,9.39
2022-11-16T23:28:25.846Z,9.39
2022-11-16T23:30:52.162Z,9.39
2022-11-16T23:33:38.527Z,9.40
2022-11-16T23:36:05.190Z,9.40
2022-11-16T23:38:31.481Z,9.38
2022-11-16T23:40:57.863Z,9.36
2022-11-16T23:43:42.642Z,9.35
2022-11-16T23:46:10.129Z,9.33
2022-11-16T23:48:36.428Z,9.33
2022-11-16T23:51:02.778Z,9.33
2022-11-16T23:53:29.089Z,9.31
2022-11-16T23:56:05.790Z,9.30
2022-11-16T23:58:32.581Z,9.32
